createdAt,value
2018-05-23T00:01:27.274Z,13.90
2018-05-23T00:04:37.095Z,13.70
2018-05-23T00:11:22.788Z,13.70
2018-05-23T00:14:32.807Z,13.70
2018-05-23T00:17:42.844Z,13.60
2018-05-23T00:20:52.871Z,13.60
2018-05-23T00:24:02.782Z,13.60
2018-05-23T00:27:13.376Z,13.50
2018-05-23T00:30:23.461Z,13.50
2018-05-23T00:33:33.171Z,13.50
2018-05-23T00:36:43.797Z,13.50
2018-05-23T00:39:53.877Z,13.40
2018-05-23T00:43:04.001Z,13.50
2018-05-23T00:46:14.410Z,13.30
2018-05-23T00:49:24.845Z,13.30
2018-05-23T00:52:34.577Z,13.30
2018-05-23T00:55:44.544Z,13.30
2018-05-23T00:58:54.920Z,13.40
2018-05-23T01:02:05.183Z,13.40
2018-05-23T01:05:15.850Z,13.30
2018-05-23T01:08:26.237Z,13.30
2018-05-23T01:11:36.209Z,13.40
2018-05-23T01:14:46.897Z,13.20
2018-05-23T01:17:57.534Z,13.10
2018-05-23T01:21:07.541Z,13.10
2018-05-23T01:24:18.086Z,13.20
2018-05-23T01:27:27.915Z,13.10
2018-05-23T01:30:38.237Z,12.90
2018-05-23T01:33:49.317Z,12.80
2018-05-23T01:36:59.372Z,12.80
2018-05-23T01:40:10.545Z,12.70
2018-05-23T01:43:20.887Z,12.70
2018-05-23T01:46:30.783Z,12.80
2018-05-23T01:49:40.509Z,12.70
2018-05-23T01:52:50.588Z,12.90
2018-05-23T01:56:01.253Z,12.60
2018-05-23T01:59:11.463Z,12.60
2018-05-23T02:02:21.325Z,12.60
2018-05-23T02:05:31.262Z,12.70
2018-05-23T02:08:41.148Z,12.70
2018-05-23T02:11:52.077Z,12.50
2018-05-23T02:15:02.754Z,12.60
2018-05-23T02:18:12.590Z,12.60
2018-05-23T02:21:22.345Z,12.70
2018-05-23T02:24:33.139Z,12.70
2018-05-23T02:27:42.999Z,12.70
2018-05-23T02:30:53.739Z,12.80
2018-05-23T02:34:04.409Z,12.90
2018-05-23T02:37:14.300Z,12.90
2018-05-23T02:40:25.427Z,13.10
2018-05-23T02:43:36.145Z,13.10
2018-05-23T02:46:45.935Z,13.10
2018-05-23T02:49:55.792Z,13.10
2018-05-23T02:53:05.601Z,13.10
2018-05-23T02:56:15.534Z,13.00
2018-05-23T02:59:25.641Z,12.90
2018-05-23T03:02:36.392Z,12.80
2018-05-23T03:05:46.533Z,12.70
2018-05-23T03:08:56.692Z,12.60
2018-05-23T03:12:06.703Z,12.50
2018-05-23T03:15:16.539Z,12.50
2018-05-23T03:18:27.032Z,12.50
2018-05-23T03:21:37.425Z,12.60
2018-05-23T03:24:47.916Z,12.50
2018-05-23T03:27:58.797Z,12.50
2018-05-23T03:31:09.158Z,12.50
2018-05-23T03:34:19.935Z,12.50
2018-05-23T03:37:29.852Z,12.40
2018-05-23T03:40:40.326Z,12.50
2018-05-23T03:43:50.769Z,12.50
2018-05-23T03:47:00.511Z,12.30
2018-05-23T03:50:10.302Z,12.30
2018-05-23T03:53:20.943Z,12.20
2018-05-23T03:56:31.184Z,12.10
2018-05-23T03:59:53.220Z,12.20
2018-05-23T04:03:15.068Z,12.20
2018-05-23T04:06:36.727Z,12.20
2018-05-23T04:09:47.175Z,12.30
2018-05-23T04:12:58.029Z,12.20
2018-05-23T04:16:08.134Z,12.30
2018-05-23T04:19:19.204Z,12.30
2018-05-23T04:22:31.201Z,12.30
2018-05-23T04:25:41.381Z,12.20
2018-05-23T04:28:51.693Z,12.10
2018-05-23T04:32:02.414Z,12.20
2018-05-23T04:35:12.982Z,12.40
2018-05-23T04:38:23.553Z,12.40
2018-05-23T04:41:34.036Z,12.50
2018-05-23T04:44:44.316Z,12.50
2018-05-23T04:47:54.245Z,12.50
2018-05-23T04:51:04.944Z,12.80
2018-05-23T04:54:14.546Z,12.80
2018-05-23T04:57:24.881Z,12.80
2018-05-23T05:00:35.517Z,12.90
2018-05-23T05:03:45.833Z,12.90
2018-05-23T05:06:55.697Z,12.90
2018-05-23T05:10:05.730Z,13.00
2018-05-23T05:13:16.479Z,13.10
2018-05-23T05:16:26.991Z,13.10
2018-05-23T05:19:37.730Z,13.20
2018-05-23T05:22:48.121Z,13.20
2018-05-23T05:25:58.212Z,13.30
2018-05-23T05:29:08.429Z,13.30
2018-05-23T05:32:19.432Z,13.30
2018-05-23T05:35:29.892Z,13.30
2018-05-23T05:38:39.783Z,13.40
2018-05-23T05:41:50.611Z,13.50
2018-05-23T05:45:02.045Z,13.50
2018-05-23T05:48:12.290Z,13.50
2018-05-23T05:51:23.429Z,13.90
2018-05-23T05:54:33.394Z,13.80
2018-05-23T05:57:43.355Z,14.00
2018-05-23T06:00:53.359Z,14.20
2018-05-23T06:04:04.026Z,14.50
2018-05-23T06:07:14.720Z,14.50
2018-05-23T06:10:24.974Z,14.70
2018-05-23T06:13:34.836Z,14.90
2018-05-23T06:16:44.764Z,15.00
2018-05-23T06:19:54.913Z,15.20
2018-05-23T06:23:05.305Z,15.50
2018-05-23T06:26:15.925Z,15.40
2018-05-23T06:29:26.037Z,15.60
2018-05-23T06:32:36.183Z,15.60
2018-05-23T06:38:57.806Z,15.90
2018-05-23T06:42:08.715Z,16.00
2018-05-23T06:45:18.645Z,16.10
2018-05-23T06:48:28.670Z,16.30
2018-05-23T06:51:38.976Z,16.50
2018-05-23T06:54:48.920Z,16.50
2018-05-23T06:57:59.077Z,16.70
2018-05-23T07:01:09.741Z,16.80
2018-05-23T07:04:20.766Z,17.00
2018-05-23T07:07:30.876Z,17.00
2018-05-23T07:10:41.087Z,17.20
2018-05-23T07:13:51.082Z,17.30
2018-05-23T07:17:01.765Z,17.50
2018-05-23T07:20:12.151Z,17.50
2018-05-23T07:23:22.257Z,17.70
2018-05-23T07:26:35.179Z,17.80
2018-05-23T07:29:45.182Z,18.00
2018-05-23T07:36:06.737Z,18.50
2018-05-23T07:39:17.365Z,18.80
2018-05-23T07:42:29.309Z,18.70
2018-05-23T07:45:39.424Z,18.90
2018-05-23T07:48:50.166Z,19.10
2018-05-23T07:52:00.783Z,19.10
2018-05-23T07:55:11.804Z,19.20
2018-05-23T07:58:21.937Z,19.20
2018-05-23T08:01:32.786Z,19.30
2018-05-23T08:04:42.674Z,19.30
2018-05-23T08:07:52.775Z,19.30
2018-05-23T08:11:02.706Z,19.40
2018-05-23T08:14:12.692Z,19.50
2018-05-23T08:17:23.746Z,19.70
2018-05-23T08:20:33.928Z,19.60
2018-05-23T08:23:44.604Z,20.10
2018-05-23T08:26:54.894Z,20.10
2018-05-23T08:30:04.165Z,20.10
2018-05-23T08:33:15.247Z,20.40
2018-05-23T08:36:25.454Z,20.40
2018-05-23T08:39:35.353Z,20.50
2018-05-23T08:42:46.331Z,20.50
2018-05-23T08:45:56.132Z,20.50
2018-05-23T08:49:07.136Z,20.60
2018-05-23T08:52:18.668Z,20.40
2018-05-23T08:55:28.817Z,20.40
2018-05-23T08:58:38.786Z,20.50
2018-05-23T09:01:49.620Z,20.50
2018-05-23T09:04:59.832Z,20.60
2018-05-23T09:08:09.888Z,20.60
2018-05-23T09:11:20.147Z,20.70
2018-05-23T09:14:31.503Z,21.00
2018-05-23T09:17:42.028Z,21.00
2018-05-23T09:20:52.362Z,21.30
2018-05-23T09:24:02.986Z,21.50
2018-05-23T09:27:12.995Z,21.70
2018-05-23T09:30:22.488Z,21.70
2018-05-23T09:33:32.927Z,22.10
2018-05-23T09:36:43.231Z,22.10
2018-05-23T09:39:53.057Z,22.20
2018-05-23T09:43:03.282Z,22.10
2018-05-23T09:46:13.809Z,22.00
2018-05-23T09:49:24.505Z,22.10
2018-05-23T09:52:34.609Z,22.10
2018-05-23T09:55:44.468Z,22.10
2018-05-23T09:58:55.206Z,22.00
2018-05-23T10:02:05.236Z,22.00
2018-05-23T10:05:15.879Z,22.10
2018-05-23T10:08:25.777Z,22.00
2018-05-23T10:11:35.548Z,22.10
2018-05-23T10:14:45.403Z,22.20
2018-05-23T10:17:55.471Z,22.20
2018-05-23T10:21:06.340Z,22.00
2018-05-23T10:24:16.826Z,22.00
2018-05-23T10:27:27.215Z,22.00
2018-05-23T10:30:36.779Z,22.00
2018-05-23T10:33:46.617Z,21.90
2018-05-23T10:36:56.541Z,21.90
2018-05-23T10:40:06.428Z,21.80
2018-05-23T10:43:16.537Z,21.90
2018-05-23T10:46:26.348Z,21.90
2018-05-23T10:49:36.528Z,22.00
2018-05-23T10:52:46.484Z,21.80
2018-05-23T10:55:55.983Z,21.50
2018-05-23T10:59:06.695Z,21.50
2018-05-23T11:02:17.399Z,21.50
2018-05-23T11:05:27.307Z,21.40
2018-05-23T11:08:38.017Z,21.20
2018-05-23T11:11:48.033Z,20.90
2018-05-23T11:14:57.875Z,20.30
2018-05-23T11:18:08.862Z,20.40
2018-05-23T11:21:18.845Z,20.50
2018-05-23T11:24:29.083Z,20.40
2018-05-23T11:27:38.957Z,20.30
2018-05-23T11:30:49.948Z,20.00
2018-05-23T11:34:00.165Z,19.70
2018-05-23T11:37:10.221Z,19.60
2018-05-23T11:40:20.414Z,19.50
2018-05-23T11:43:32.036Z,19.50
2018-05-23T11:46:42.260Z,19.30
2018-05-23T11:49:52.686Z,18.80
2018-05-23T11:53:02.986Z,18.60
2018-05-23T11:56:13.485Z,18.60
2018-05-23T11:59:23.851Z,18.40
2018-05-23T12:02:33.780Z,18.20
2018-05-23T12:05:44.456Z,18.00
2018-05-23T12:08:55.527Z,17.70
2018-05-23T12:12:06.836Z,17.50
2018-05-23T12:15:17.675Z,17.40
2018-05-23T12:18:27.946Z,17.30
2018-05-23T12:21:38.301Z,17.20
2018-05-23T12:24:48.655Z,17.10
2018-05-23T12:27:58.966Z,17.10
2018-05-23T12:31:08.905Z,17.10
2018-05-23T12:34:18.936Z,17.10
2018-05-23T12:37:28.793Z,17.10
2018-05-23T12:40:39.207Z,17.10
2018-05-23T12:43:49.419Z,17.10
2018-05-23T12:46:59.344Z,17.10
2018-05-23T12:50:09.629Z,17.10
2018-05-23T12:53:20.432Z,17.20
2018-05-23T12:56:30.798Z,17.20
2018-05-23T12:59:41.719Z,17.20
2018-05-23T13:02:53.218Z,17.20
2018-05-23T13:06:03.083Z,17.20
2018-05-23T13:09:13.946Z,17.40
2018-05-23T13:12:23.854Z,17.40
2018-05-23T13:15:34.783Z,17.40
2018-05-23T13:18:45.879Z,17.40
2018-05-23T13:21:56.613Z,17.40
2018-05-23T13:28:18.905Z,17.50
2018-05-23T13:31:28.816Z,17.60
2018-05-23T13:34:38.626Z,17.60
2018-05-23T13:37:49.057Z,17.60
2018-05-23T13:40:59.113Z,17.60
2018-05-23T13:44:09.166Z,17.30
2018-05-23T13:47:19.426Z,17.30
2018-05-23T13:50:29.270Z,17.00
2018-05-23T13:53:39.451Z,17.20
2018-05-23T13:56:49.547Z,17.30
2018-05-23T13:59:59.616Z,17.20
2018-05-23T14:03:09.423Z,17.20
2018-05-23T14:06:19.144Z,17.30
2018-05-23T14:09:29.295Z,17.30
2018-05-23T14:12:39.960Z,17.50
2018-05-23T14:15:50.291Z,17.60
2018-05-23T14:19:00.488Z,17.60
2018-05-23T14:22:11.501Z,17.70
2018-05-23T14:25:22.042Z,17.60
2018-05-23T14:28:32.545Z,17.70
2018-05-23T14:31:42.893Z,17.50
2018-05-23T14:34:53.251Z,17.50
2018-05-23T14:38:03.489Z,17.50
2018-05-23T14:41:13.845Z,17.50
2018-05-23T14:44:24.258Z,17.50
2018-05-23T14:47:34.506Z,17.50
2018-05-23T14:50:44.672Z,17.40
2018-05-23T14:53:54.671Z,17.50
2018-05-23T14:57:04.036Z,17.50
2018-05-23T15:00:15.248Z,17.50
2018-05-23T15:03:25.597Z,17.50
2018-05-23T15:06:37.065Z,17.60
2018-05-23T15:09:47.189Z,17.60
2018-05-23T15:12:57.091Z,17.60
2018-05-23T15:16:07.156Z,17.60
2018-05-23T15:19:16.650Z,17.50
2018-05-23T15:22:26.919Z,17.50
2018-05-23T15:25:37.214Z,17.50
2018-05-23T15:28:47.655Z,17.70
2018-05-23T15:31:58.287Z,17.80
2018-05-23T15:35:09.016Z,17.80
2018-05-23T15:38:19.863Z,17.80
2018-05-23T15:41:30.213Z,17.80
2018-05-23T15:44:40.664Z,17.80
2018-05-23T15:47:50.531Z,17.90
2018-05-23T15:51:00.683Z,18.00
2018-05-23T15:54:11.005Z,18.00
2018-05-23T15:57:21.084Z,18.10
2018-05-23T16:00:31.841Z,18.20
2018-05-23T16:03:42.012Z,18.20
2018-05-23T16:06:53.404Z,18.30
2018-05-23T16:10:03.652Z,18.20
2018-05-23T16:13:13.568Z,18.20
2018-05-23T16:16:24.060Z,18.20
2018-05-23T16:19:34.909Z,18.30
2018-05-23T16:22:44.935Z,18.20
2018-05-23T16:25:55.018Z,18.30
2018-05-23T16:29:05.791Z,18.30
2018-05-23T16:32:16.104Z,18.40
2018-05-23T16:35:26.873Z,18.20
2018-05-23T16:38:37.654Z,18.20
2018-05-23T16:41:48.009Z,18.30
2018-05-23T16:44:59.142Z,18.40
2018-05-23T16:48:08.927Z,18.50
2018-05-23T16:51:19.677Z,18.50
2018-05-23T16:54:29.883Z,18.60
2018-05-23T16:57:40.025Z,18.50
2018-05-23T17:00:51.277Z,18.60
2018-05-23T17:04:01.672Z,18.60
2018-05-23T17:07:12.616Z,18.60
2018-05-23T17:10:22.698Z,18.60
2018-05-23T17:13:33.263Z,18.60
2018-05-23T17:16:43.413Z,18.60
2018-05-23T17:19:54.081Z,18.50
2018-05-23T17:23:04.133Z,18.20
2018-05-23T17:26:14.137Z,18.20
2018-05-23T17:29:24.425Z,18.20
2018-05-23T17:32:35.050Z,18.00
2018-05-23T17:35:45.278Z,18.00
2018-05-23T17:38:56.431Z,18.20
2018-05-23T17:42:06.956Z,18.20
2018-05-23T17:45:17.214Z,18.20
2018-05-23T17:48:27.609Z,18.10
2018-05-23T17:51:37.799Z,18.10
2018-05-23T17:54:48.639Z,18.20
2018-05-23T17:57:59.230Z,18.20
2018-05-23T18:01:09.288Z,18.20
2018-05-23T18:04:19.614Z,18.10
2018-05-23T18:07:29.902Z,18.10
2018-05-23T18:10:40.095Z,18.10
2018-05-23T18:13:50.499Z,18.00
2018-05-23T18:17:00.883Z,18.00
2018-05-23T18:20:11.469Z,17.90
2018-05-23T18:23:21.834Z,18.00
2018-05-23T18:26:32.179Z,18.00
2018-05-23T18:29:42.406Z,18.10
2018-05-23T18:32:53.293Z,18.10
2018-05-23T18:36:02.843Z,18.00
2018-05-23T18:39:13.089Z,18.00
2018-05-23T18:42:23.786Z,17.90
2018-05-23T18:45:34.552Z,17.90
2018-05-23T18:48:45.345Z,17.90
2018-05-23T18:51:56.118Z,17.80
2018-05-23T18:55:06.060Z,17.80
2018-05-23T18:58:17.224Z,17.80
2018-05-23T19:01:27.774Z,17.70
2018-05-23T19:04:37.942Z,17.70
2018-05-23T19:07:48.505Z,17.60
2018-05-23T19:10:59.723Z,17.50
2018-05-23T19:14:09.772Z,17.40
2018-05-23T19:17:19.928Z,17.40
2018-05-23T19:20:30.048Z,17.40
2018-05-23T19:23:40.421Z,17.50
2018-05-23T19:26:50.811Z,17.50
2018-05-23T19:30:01.471Z,17.40
2018-05-23T19:33:11.511Z,17.40
2018-05-23T19:36:21.917Z,17.40
2018-05-23T19:39:31.778Z,17.10
2018-05-23T19:42:41.750Z,17.10
2018-05-23T19:45:52.771Z,17.10
2018-05-23T19:49:02.963Z,17.10
2018-05-23T19:52:13.176Z,17.10
2018-05-23T19:55:23.249Z,17.10
2018-05-23T19:58:33.561Z,17.00
2018-05-23T20:01:44.176Z,16.70
2018-05-23T20:04:54.768Z,16.70
2018-05-23T20:08:04.701Z,16.70
2018-05-23T20:11:15.644Z,16.70
2018-05-23T20:14:25.898Z,16.80
2018-05-23T20:17:36.708Z,16.60
2018-05-23T20:20:47.367Z,16.60
2018-05-23T20:23:57.962Z,16.60
2018-05-23T20:27:08.221Z,16.70
2018-05-23T20:30:18.319Z,16.70
2018-05-23T20:33:29.081Z,16.70
2018-05-23T20:36:40.492Z,16.70
2018-05-23T20:39:50.893Z,16.70
2018-05-23T20:43:02.083Z,16.60
2018-05-23T20:46:12.426Z,16.60
2018-05-23T20:49:23.555Z,16.50
2018-05-23T20:52:33.545Z,16.50
2018-05-23T20:55:44.174Z,16.40
2018-05-23T20:58:54.701Z,16.40
2018-05-23T21:02:06.431Z,16.40
2018-05-23T21:05:17.217Z,16.40
2018-05-23T21:08:27.192Z,16.30
2018-05-23T21:11:37.946Z,16.20
2018-05-23T21:14:48.232Z,16.30
2018-05-23T21:17:58.265Z,16.30
2018-05-23T21:21:08.826Z,16.30
2018-05-23T21:24:19.374Z,16.20
2018-05-23T21:27:29.580Z,16.10
2018-05-23T21:30:39.915Z,16.10
2018-05-23T21:33:51.344Z,16.10
2018-05-23T21:37:02.534Z,16.10
2018-05-23T21:40:13.222Z,16.10
2018-05-23T21:43:23.599Z,16.10
2018-05-23T21:46:33.873Z,16.00
2018-05-23T21:49:43.936Z,16.10
2018-05-23T21:52:55.245Z,16.00
2018-05-23T21:56:04.906Z,16.00
2018-05-23T21:59:15.535Z,16.00
2018-05-23T22:02:26.557Z,16.00
2018-05-23T22:05:37.349Z,16.00
2018-05-23T22:08:48.765Z,16.00
2018-05-23T22:11:59.240Z,16.00
2018-05-23T22:15:09.334Z,16.00
2018-05-23T22:18:20.560Z,15.90
2018-05-23T22:25:06.448Z,15.80
2018-05-23T22:28:16.905Z,15.80
2018-05-23T22:31:27.090Z,15.80
2018-05-23T22:34:38.039Z,15.70
2018-05-23T22:37:48.531Z,15.70
2018-05-23T22:40:59.036Z,15.80
2018-05-23T22:44:10.425Z,15.90
2018-05-23T22:47:21.520Z,15.80
2018-05-23T22:50:31.438Z,15.90
2018-05-23T22:53:41.589Z,15.80
2018-05-23T22:56:51.424Z,15.80
2018-05-23T23:00:01.552Z,15.80
2018-05-23T23:03:12.018Z,15.90
2018-05-23T23:06:22.214Z,15.90
2018-05-23T23:09:32.720Z,16.00
2018-05-23T23:12:43.701Z,16.10
2018-05-23T23:15:54.982Z,16.10
2018-05-23T23:19:06.912Z,16.10
2018-05-23T23:25:54.436Z,16.10
2018-05-23T23:29:05.035Z,16.10
2018-05-23T23:32:14.796Z,16.00
2018-05-23T23:35:25.018Z,16.10
2018-05-23T23:38:35.113Z,16.10
2018-05-23T23:41:45.308Z,16.10
2018-05-23T23:44:55.453Z,16.10
2018-05-23T23:48:06.027Z,16.10
2018-05-23T23:51:16.486Z,16.10
2018-05-23T23:54:27.436Z,16.10
2018-05-23T23:57:38.287Z,16.10
